Time;durP1;ratioP1;P1;durP2;ratioP2;P2;SDS_P1;SDS_P2;PMS_P1;PMS_P2;Temp;Humidity;BMP_temperature;BMP_pressure;BME280_temperature;BME280_humidity;BME280_pressure;Samples;Min_cycle;Max_cycle;Signal;HPM_P1;HPM_P2
2022/08/10 00:01:42;;;;;;;1.48;1.30;;;23.10;55.00;;;;;;5032335;28;20168;-71
2022/08/10 00:04:08;;;;;;;1.13;1.02;;;23.10;55.00;;;;;;5031870;28;20199;-70
2022/08/10 00:06:33;;;;;;;1.83;1.10;;;23.10;55.00;;;;;;5031288;28;20237;-71
2022/08/10 00:08:59;;;;;;;2.25;1.40;;;23.10;55.10;;;;;;5033052;28;20526;-70
2022/08/10 00:11:24;;;;;;;1.77;1.00;;;23.10;55.10;;;;;;5036185;28;20606;-70
2022/08/10 00:13:50;;;;;;;1.42;1.33;;;23.10;55.10;;;;;;5035311;28;20172;-71
2022/08/10 00:16:16;;;;;;;1.20;1.17;;;23.10;55.10;;;;;;5036124;28;20195;-71
2022/08/10 00:18:42;;;;;;;1.52;1.42;;;23.10;55.10;;;;;;5036092;28;20175;-70
2022/08/10 00:21:08;;;;;;;1.48;1.38;;;23.10;55.10;;;;;;5035180;28;20309;-71
2022/08/10 00:23:33;;;;;;;1.60;1.23;;;23.10;55.10;;;;;;5036149;28;20266;-70
2022/08/10 00:25:59;;;;;;;1.30;1.20;;;23.10;55.00;;;;;;5035945;28;20216;-70
2022/08/10 00:28:24;;;;;;;1.23;1.10;;;23.10;55.10;;;;;;5035274;28;20180;-70
2022/08/10 00:30:50;;;;;;;1.30;1.20;;;23.10;55.10;;;;;;5035723;28;20178;-71
2022/08/10 00:33:16;;;;;;;1.23;1.15;;;23.00;55.00;;;;;;5035817;28;20266;-71
2022/08/10 00:35:41;;;;;;;1.50;1.23;;;23.00;55.00;;;;;;5035294;28;20172;-70
2022/08/10 00:38:07;;;;;;;1.30;1.30;;;23.00;54.90;;;;;;5036691;28;20619;-71
2022/08/10 00:40:32;;;;;;;1.48;1.38;;;23.00;55.00;;;;;;5035651;28;20206;-70
2022/08/10 00:42:58;;;;;;;1.50;1.40;;;23.00;54.90;;;;;;5036258;28;20179;-71
2022/08/10 00:45:23;;;;;;;1.38;1.27;;;23.00;54.80;;;;;;5036074;28;20215;-70
2022/08/10 00:47:49;;;;;;;2.03;1.48;;;23.00;55.00;;;;;;5035201;28;20885;-71
2022/08/10 00:50:16;;;;;;;1.20;1.20;;;23.00;54.80;;;;;;5035726;28;20171;-70
2022/08/10 00:52:42;;;;;;;1.85;1.33;;;23.00;54.90;;;;;;5036104;28;20622;-69
2022/08/10 00:55:08;;;;;;;1.58;1.48;;;23.00;55.00;;;;;;5035218;28;20221;-69
2022/08/10 00:57:33;;;;;;;1.10;1.10;;;23.00;54.80;;;;;;5035923;28;20179;-70
2022/08/10 00:59:59;;;;;;;1.85;1.10;;;23.00;54.90;;;;;;5034739;28;20184;-70
2022/08/10 01:02:24;;;;;;;1.33;1.23;;;23.00;54.90;;;;;;5034876;28;20519;-70
2022/08/10 01:04:50;;;;;;;1.30;1.20;;;23.00;55.00;;;;;;5035743;28;20215;-70
2022/08/10 01:07:24;;;;;;;1.85;1.50;;;23.00;55.00;;;;;;5035037;28;20172;-71
2022/08/10 01:10:08;;;;;;;1.08;1.08;;;23.00;55.10;;;;;;5035268;28;20230;-71
2022/08/10 01:12:40;;;;;;;1.30;1.20;;;23.00;55.10;;;;;;5035777;28;20214;-71
2022/08/10 01:15:45;;;;;;;2.05;1.45;;;23.00;55.00;;;;;;5033874;28;20187;-71
2022/08/10 01:18:47;;;;;;;1.20;1.20;;;23.00;54.90;;;;;;5035378;28;20482;-71
2022/08/10 01:21:56;;;;;;;2.45;1.27;;;23.00;55.00;;;;;;4993798;28;20187;-70
2022/08/10 01:24:38;;;;;;;1.77;1.10;;;23.00;55.00;;;;;;5016332;28;20829;-71
2022/08/10 01:27:27;;;;;;;1.27;1.15;;;23.00;55.00;;;;;;5033626;28;20734;-70
2022/08/10 01:30:02;;;;;;;1.38;1.27;;;22.90;55.00;;;;;;5016398;28;20222;-70
2022/08/10 01:32:58;;;;;;;1.30;1.20;;;22.90;54.90;;;;;;5035050;28;20183;-71
2022/08/10 01:35:44;;;;;;;1.30;1.20;;;23.00;55.00;;;;;;5033625;28;20197;-71
2022/08/10 01:38:13;;;;;;;1.40;1.30;;;22.90;55.20;;;;;;5033064;28;20188;-71
2022/08/10 01:40:46;;;;;;;1.27;1.20;;;22.90;55.20;;;;;;5017093;28;20700;-71
2022/08/10 01:43:12;;;;;;;1.15;1.13;;;22.90;55.80;;;;;;5017112;28;20182;-70
2022/08/10 01:45:40;;;;;;;1.48;1.38;;;22.90;55.30;;;;;;5032473;28;20215;-69
2022/08/10 01:50:52;;;;;;;1.40;1.30;;;22.90;55.20;;;;;;5033714;28;20190;-69
2022/08/10 01:53:21;;;;;;;2.22;1.73;;;22.90;55.30;;;;;;5033307;28;20178;-70
2022/08/10 01:55:48;;;;;;;1.23;1.20;;;22.90;55.30;;;;;;5033162;28;20183;-70
2022/08/10 01:58:14;;;;;;;1.42;1.20;;;22.90;55.30;;;;;;5015959;28;20168;-70
2022/08/10 02:00:39;;;;;;;1.27;1.27;;;22.90;55.30;;;;;;5033089;28;20174;-70
2022/08/10 02:03:06;;;;;;;1.30;1.20;;;22.90;55.30;;;;;;5016425;28;20243;-70
2022/08/10 02:05:32;;;;;;;2.33;1.40;;;22.90;55.30;;;;;;5015459;28;20290;-70
2022/08/10 02:08:00;;;;;;;1.38;1.27;;;22.90;55.40;;;;;;5016443;28;20266;-72
2022/08/10 02:10:26;;;;;;;1.50;1.40;;;22.90;55.40;;;;;;5033928;28;20651;-71
2022/08/10 02:12:55;;;;;;;1.15;1.10;;;22.90;55.40;;;;;;5031915;28;20187;-70
2022/08/10 02:15:20;;;;;;;0.95;0.95;;;22.90;55.50;;;;;;5032622;28;20650;-70
2022/08/10 02:17:52;;;;;;;1.17;1.17;;;22.90;55.60;;;;;;5015959;28;20168;-71
2022/08/10 02:20:20;;;;;;;2.00;1.30;;;22.90;55.60;;;;;;5031702;28;20769;-71
2022/08/10 02:22:48;;;;;;;1.40;1.30;;;22.90;55.60;;;;;;5015886;28;20472;-70
2022/08/10 02:25:14;;;;;;;1.92;1.30;;;22.90;55.50;;;;;;5032347;28;20301;-70
2022/08/10 02:27:39;;;;;;;1.20;1.10;;;22.90;55.40;;;;;;5033006;28;20262;-70
2022/08/10 02:30:05;;;;;;;1.20;1.20;;;22.80;55.40;;;;;;5033442;28;20199;-70
2022/08/10 02:32:31;;;;;;;1.70;1.60;;;22.90;55.40;;;;;;5031040;28;20639;-71
2022/08/10 02:34:56;;;;;;;1.38;1.35;;;22.80;55.30;;;;;;5031652;28;20262;-71
2022/08/10 02:37:23;;;;;;;1.42;1.30;;;22.90;55.40;;;;;;5033373;28;20610;-70
2022/08/10 02:39:49;;;;;;;1.50;1.38;;;22.80;55.50;;;;;;5015436;28;20176;-70
2022/08/10 02:42:25;;;;;;;1.48;1.38;;;22.80;55.40;;;;;;5031403;28;20229;-70
2022/08/10 02:45:00;;;;;;;1.80;1.20;;;22.80;55.50;;;;;;5015341;28;20265;-70
2022/08/10 02:47:31;;;;;;;1.27;1.27;;;22.90;55.70;;;;;;5014908;28;20179;-70
2022/08/10 02:50:17;;;;;;;1.70;1.30;;;22.90;55.70;;;;;;5033217;28;20276;-70
2022/08/10 02:52:44;;;;;;;1.33;1.23;;;22.80;55.70;;;;;;5032120;28;20181;-69
2022/08/10 02:55:30;;;;;;;1.60;1.50;;;22.80;55.70;;;;;;5014742;28;20233;-71
2022/08/10 02:57:56;;;;;;;1.58;1.23;;;22.80;55.70;;;;;;5032079;28;20179;-70
2022/08/10 03:00:23;;;;;;;1.52;1.33;;;22.80;55.70;;;;;;5015434;28;20179;-70
2022/08/10 03:02:48;;;;;;;1.40;1.15;;;22.80;55.70;;;;;;5030981;28;20183;-70
2022/08/10 03:05:15;;;;;;;1.63;1.52;;;22.80;55.70;;;;;;5031646;28;20203;-72
2022/08/10 03:07:46;;;;;;;1.52;1.42;;;22.80;55.80;;;;;;5032936;28;20229;-74
2022/08/10 03:10:23;;;;;;;1.63;1.52;;;22.80;55.80;;;;;;5030827;28;20227;-71
2022/08/10 03:13:03;;;;;;;1.60;1.50;;;22.80;55.80;;;;;;5031598;28;20262;-70
2022/08/10 03:15:29;;;;;;;1.15;1.10;;;22.80;55.80;;;;;;5030931;28;20184;-71
2022/08/10 03:17:55;;;;;;;1.58;1.48;;;22.80;55.80;;;;;;5031308;28;20653;-70
2022/08/10 03:20:21;;;;;;;1.52;1.42;;;22.80;55.80;;;;;;5031288;28;20358;-70
2022/08/10 03:22:49;;;;;;;1.42;1.33;;;22.80;55.80;;;;;;5030658;28;20178;-70
2022/08/10 03:25:15;;;;;;;1.67;1.58;;;22.80;55.90;;;;;;5031325;28;20215;-70
2022/08/10 03:27:40;;;;;;;1.60;1.50;;;22.80;55.80;;;;;;5031444;28;20175;-70
2022/08/10 03:30:06;;;;;;;1.45;1.35;;;22.80;55.90;;;;;;5030518;28;20174;-70
2022/08/10 03:32:32;;;;;;;1.52;1.42;;;22.80;55.80;;;;;;5032263;28;20175;-71
2022/08/10 03:34:58;;;;;;;1.50;1.40;;;22.70;55.90;;;;;;5031062;28;20211;-70
2022/08/10 03:37:23;;;;;;;1.60;1.50;;;22.70;55.90;;;;;;5014057;28;20255;-70
2022/08/10 03:39:50;;;;;;;2.40;1.40;;;22.70;55.90;;;;;;5031166;28;20198;-70
2022/08/10 03:42:15;;;;;;;1.65;1.50;;;22.70;55.90;;;;;;5032342;28;20180;-70
2022/08/10 03:44:41;;;;;;;1.42;1.33;;;22.80;56.00;;;;;;5030006;28;20581;-70
2022/08/10 03:47:06;;;;;;;1.40;1.30;;;22.70;56.00;;;;;;5014484;28;20635;-70
2022/08/10 03:49:32;;;;;;;1.50;1.40;;;22.70;56.00;;;;;;5014495;28;20642;-70
2022/08/10 03:51:57;;;;;;;1.65;1.55;;;22.70;56.00;;;;;;5030300;28;20167;-69
2022/08/10 03:54:23;;;;;;;1.65;1.55;;;22.80;56.10;;;;;;5032001;28;20178;-70
2022/08/10 03:56:49;;;;;;;1.40;1.30;;;22.70;56.10;;;;;;5014235;28;20184;-70
2022/08/10 03:59:15;;;;;;;1.65;1.55;;;22.70;56.10;;;;;;5030048;28;20176;-70
2022/08/10 04:01:41;;;;;;;1.50;1.40;;;22.70;56.10;;;;;;5030966;28;20171;-70
2022/08/10 04:04:07;;;;;;;2.10;1.40;;;22.70;56.70;;;;;;5031723;28;20637;-70
2022/08/10 04:06:32;;;;;;;1.60;1.50;;;22.70;56.10;;;;;;5031390;28;20749;-72
2022/08/10 04:08:58;;;;;;;1.55;1.45;;;22.70;56.00;;;;;;5014022;28;20235;-71
2022/08/10 04:11:23;;;;;;;1.67;1.58;;;22.70;56.10;;;;;;5031959;28;20183;-71
2022/08/10 04:13:49;;;;;;;1.77;1.52;;;22.70;56.10;;;;;;5031159;28;20167;-70
2022/08/10 04:16:14;;;;;;;1.70;1.60;;;22.70;56.20;;;;;;5031873;28;20545;-70
2022/08/10 04:18:40;;;;;;;1.35;1.25;;;22.70;56.10;;;;;;5031120;28;20175;-70
2022/08/10 04:21:14;;;;;;;1.40;1.40;;;22.70;56.10;;;;;;5031925;28;20225;-70
2022/08/10 04:23:45;;;;;;;1.42;1.30;;;22.70;56.10;;;;;;5030582;28;20665;-69
2022/08/10 04:26:10;;;;;;;1.52;1.42;;;22.70;56.20;;;;;;5013585;28;20317;-70
2022/08/10 04:28:36;;;;;;;1.55;1.45;;;22.70;56.20;;;;;;5031894;28;20647;-71
2022/08/10 04:31:03;;;;;;;1.30;1.20;;;22.70;56.20;;;;;;5031552;28;20186;-71
2022/08/10 04:33:28;;;;;;;2.00;1.80;;;22.70;56.20;;;;;;5031255;28;20186;-71
2022/08/10 04:35:54;;;;;;;1.45;1.35;;;22.70;56.20;;;;;;5030375;28;20267;-71
2022/08/10 04:38:19;;;;;;;1.40;1.30;;;22.60;56.20;;;;;;5014011;28;20175;-70
2022/08/10 04:40:45;;;;;;;2.10;1.48;;;22.70;56.20;;;;;;5029566;28;20181;-71
2022/08/10 04:43:11;;;;;;;1.67;1.58;;;22.60;56.20;;;;;;5031780;28;20203;-70
2022/08/10 04:45:36;;;;;;;1.50;1.40;;;22.70;56.30;;;;;;5013888;28;20208;-70
2022/08/10 04:48:02;;;;;;;1.60;1.50;;;22.60;56.20;;;;;;5030721;28;20680;-70
2022/08/10 04:50:27;;;;;;;1.80;1.70;;;22.60;56.20;;;;;;5031787;28;20547;-70
2022/08/10 04:52:53;;;;;;;1.45;1.35;;;22.60;56.20;;;;;;5031376;28;20211;-70
2022/08/10 04:55:19;;;;;;;1.52;1.40;;;22.60;56.20;;;;;;5030957;28;20180;-70
2022/08/10 04:57:44;;;;;;;1.60;1.48;;;22.60;56.70;;;;;;5035322;28;20172;-70
2022/08/10 05:00:10;;;;;;;2.65;1.90;;;22.60;56.30;;;;;;5035302;28;20225;-70
2022/08/10 05:02:35;;;;;;;1.42;1.33;;;22.70;56.20;;;;;;5033240;28;20530;-70
2022/08/10 05:05:01;;;;;;;1.60;1.50;;;22.70;56.20;;;;;;5035122;28;20235;-71
2022/08/10 05:07:27;;;;;;;1.80;1.70;;;22.70;56.30;;;;;;5035219;28;20219;-71
2022/08/10 05:09:53;;;;;;;1.98;1.35;;;22.70;56.20;;;;;;5034359;28;20223;-71
2022/08/10 05:12:18;;;;;;;1.60;1.50;;;22.70;56.30;;;;;;5035064;28;20619;-71
2022/08/10 05:14:44;;;;;;;1.65;1.55;;;22.70;56.20;;;;;;5034818;28;20208;-70
2022/08/10 05:17:09;;;;;;;2.30;1.70;;;22.70;56.30;;;;;;5034227;28;20180;-71
2022/08/10 05:19:35;;;;;;;2.05;1.85;;;22.70;56.30;;;;;;5034768;28;20541;-71
2022/08/10 05:22:01;;;;;;;3.17;1.67;;;22.70;56.30;;;;;;5034216;28;20175;-70
2022/08/10 05:24:26;;;;;;;1.92;1.55;;;22.70;56.40;;;;;;5034555;28;20219;-71
2022/08/10 05:26:52;;;;;;;1.38;1.27;;;22.60;56.30;;;;;;5034501;28;20708;-71
2022/08/10 05:29:17;;;;;;;2.05;1.70;;;22.70;56.30;;;;;;5033971;28;20183;-71
2022/08/10 05:31:43;;;;;;;1.48;1.38;;;22.70;56.40;;;;;;5034548;28;20179;-72
2022/08/10 05:34:08;;;;;;;2.00;1.80;;;22.70;56.40;;;;;;5033225;28;20172;-72
2022/08/10 05:36:34;;;;;;;2.55;1.85;;;22.70;56.20;;;;;;5033923;28;20183;-72
2022/08/10 05:39:00;;;;;;;1.67;1.58;;;22.70;56.30;;;;;;5016851;28;20176;-72
2022/08/10 05:41:26;;;;;;;1.92;1.70;;;22.70;56.30;;;;;;5033115;28;20180;-72
2022/08/10 05:43:51;;;;;;;1.95;1.75;;;22.70;56.30;;;;;;5032104;28;20175;-70
2022/08/10 05:46:17;;;;;;;2.17;1.90;;;22.70;56.20;;;;;;5033005;28;20184;-69
2022/08/10 05:48:42;;;;;;;2.63;1.60;;;22.70;56.20;;;;;;5034622;28;20176;-69
2022/08/10 05:51:08;;;;;;;1.85;1.45;;;22.70;56.40;;;;;;5033330;28;20175;-68
2022/08/10 05:53:35;;;;;;;2.58;1.60;;;22.80;56.40;;;;;;5034300;28;20266;-69
2022/08/10 05:56:01;;;;;;;1.60;1.50;;;22.80;56.40;;;;;;5033833;28;20184;-69
2022/08/10 05:58:26;;;;;;;2.55;1.90;;;22.80;56.40;;;;;;5032206;28;20518;-73
2022/08/10 06:00:55;;;;;;;2.10;1.90;;;22.80;56.50;;;;;;5033832;28;20619;-72
2022/08/10 06:03:26;;;;;;;1.70;1.60;;;22.80;56.50;;;;;;5033690;28;20179;-74
2022/08/10 06:05:53;;;;;;;1.77;1.45;;;22.80;56.60;;;;;;5031890;28;20219;-75
2022/08/10 06:08:20;;;;;;;2.17;1.70;;;22.80;56.50;;;;;;5032644;28;20179;-75
2022/08/10 06:10:45;;;;;;;2.03;1.92;;;22.80;56.50;;;;;;5033612;28;20271;-74
2022/08/10 06:15:56;;;;;;;3.40;1.67;;;22.80;56.50;;;;;;5033026;28;20633;-75
2022/08/10 06:18:22;;;;;;;3.42;1.95;;;22.80;56.50;;;;;;5033164;28;20179;-71
2022/08/10 06:20:47;;;;;;;3.10;1.60;;;22.80;56.50;;;;;;5033710;28;20283;-73
2022/08/10 06:23:13;;;;;;;4.00;1.88;;;22.80;56.40;;;;;;5032689;28;20252;-71
2022/08/10 06:25:38;;;;;;;2.85;1.95;;;22.90;56.60;;;;;;5032849;28;20678;-74
2022/08/10 06:28:04;;;;;;;1.92;1.65;;;22.90;56.60;;;;;;5033442;28;20188;-74
2022/08/10 06:30:29;;;;;;;3.15;1.50;;;22.90;56.60;;;;;;5015933;28;20176;-71
2022/08/10 06:32:56;;;;;;;6.25;2.25;;;22.90;56.60;;;;;;5031445;28;20168;-73
2022/08/10 06:35:27;;;;;;;5.20;1.88;;;22.90;56.70;;;;;;5032111;28;20176;-72
2022/08/10 06:37:52;;;;;;;3.47;1.90;;;22.90;56.50;;;;;;5031975;28;20176;-74
2022/08/10 06:40:18;;;;;;;5.45;1.83;;;22.90;56.60;;;;;;5031527;28;20182;-73
2022/08/10 06:42:46;;;;;;;2.78;1.88;;;22.90;56.40;;;;;;5015703;28;20305;-73
2022/08/10 06:45:17;;;;;;;2.00;1.80;;;22.90;56.40;;;;;;5032051;28;20572;-74
2022/08/10 06:47:46;;;;;;;3.67;2.00;;;22.90;56.30;;;;;;5015101;28;20199;-72
2022/08/10 06:50:16;;;;;;;2.65;1.55;;;22.90;56.30;;;;;;5015661;28;20184;-71
2022/08/10 06:52:41;;;;;;;2.72;1.77;;;22.90;56.30;;;;;;5015442;28;20230;-73
2022/08/10 06:55:08;;;;;;;4.32;1.85;;;22.90;56.40;;;;;;5015048;28;20176;-72
2022/08/10 06:57:34;;;;;;;8.18;2.58;;;23.00;56.50;;;;;;5032166;28;20188;-70
2022/08/10 06:59:59;;;;;;;3.53;1.85;;;23.00;56.40;;;;;;5031830;28;20263;-70
2022/08/10 07:02:28;;;;;;;6.43;1.80;;;23.00;56.40;;;;;;5014755;28;20203;-71
2022/08/10 07:04:58;;;;;;;4.43;1.73;;;23.10;56.40;;;;;;5031642;28;20211;-72
2022/08/10 07:07:26;;;;;;;5.00;2.28;;;23.10;56.30;;;;;;5032287;28;20176;-78
2022/08/10 07:09:51;;;;;;;2.20;1.70;;;23.10;56.40;;;;;;5031311;28;20724;-72
2022/08/10 07:12:18;;;;;;;4.03;2.15;;;23.10;56.40;;;;;;5015340;28;20176;-70
2022/08/10 07:14:44;;;;;;;2.03;1.58;;;23.10;56.40;;;;;;5014394;28;20207;-70
2022/08/10 07:17:15;;;;;;;5.65;1.83;;;23.10;56.40;;;;;;5032917;28;20634;-71
2022/08/10 07:19:42;;;;;;;2.92;1.60;;;23.10;56.40;;;;;;5014603;28;20214;-71
2022/08/10 07:22:08;;;;;;;3.38;2.42;;;23.20;56.50;;;;;;5030543;28;20255;-70
2022/08/10 07:24:34;;;;;;;2.47;1.88;;;23.20;56.50;;;;;;5032500;28;20274;-71
2022/08/10 07:26:59;;;;;;;2.10;1.90;;;23.20;56.50;;;;;;5014932;28;20176;-71
2022/08/10 07:29:29;;;;;;;2.85;1.77;;;23.30;56.50;;;;;;5030614;28;20190;-74
2022/08/10 07:31:56;;;;;;;1.92;1.70;;;23.30;56.50;;;;;;5015377;28;20174;-69
2022/08/10 07:34:21;;;;;;;2.72;1.50;;;23.30;56.60;;;;;;5014592;28;20176;-71
2022/08/10 07:36:48;;;;;;;3.55;1.75;;;23.30;56.50;;;;;;5031429;28;20176;-70
2022/08/10 07:39:14;;;;;;;2.95;1.95;;;23.30;56.50;;;;;;5031185;28;20202;-72
2022/08/10 07:41:40;;;;;;;4.68;2.17;;;23.30;56.50;;;;;;5032267;28;20180;-71
2022/08/10 07:44:05;;;;;;;2.42;1.70;;;23.30;56.40;;;;;;5031524;28;20204;-69
2022/08/10 07:46:32;;;;;;;2.85;1.50;;;23.40;56.40;;;;;;5014487;28;20203;-69
2022/08/10 07:49:07;;;;;;;3.08;1.90;;;23.40;56.40;;;;;;5030759;28;20179;-68
2022/08/10 07:51:32;;;;;;;3.83;1.88;;;23.40;56.30;;;;;;5030196;28;20175;-70
2022/08/10 07:53:59;;;;;;;3.58;2.28;;;23.40;56.30;;;;;;5031901;28;20168;-68
2022/08/10 07:56:26;;;;;;;2.45;1.70;;;23.40;56.30;;;;;;5014527;28;20591;-71
2022/08/10 07:58:55;;;;;;;4.03;1.83;;;23.40;56.20;;;;;;5030229;28;20278;-70
2022/08/10 08:01:25;;;;;;;4.68;1.75;;;23.40;56.20;;;;;;5030766;28;20716;-71
2022/08/10 08:03:51;;;;;;;5.22;1.95;;;23.40;56.20;;;;;;5013527;28;20176;-71
2022/08/10 08:06:16;;;;;;;3.15;1.70;;;23.50;56.20;;;;;;5014269;28;20211;-72
2022/08/10 08:08:42;;;;;;;4.45;1.88;;;23.50;56.20;;;;;;5030969;28;20168;-71
2022/08/10 08:11:08;;;;;;;6.30;2.35;;;23.50;56.20;;;;;;5030115;28;20570;-70
2022/08/10 08:13:33;;;;;;;3.08;2.00;;;23.50;56.10;;;;;;5030714;28;20190;-68
2022/08/10 08:16:03;;;;;;;3.25;1.52;;;23.50;56.10;;;;;;5014167;28;20179;-70
2022/08/10 08:18:28;;;;;;;3.88;1.80;;;23.50;56.10;;;;;;5029908;28;20183;-69
2022/08/10 08:20:54;;;;;;;3.33;2.15;;;23.50;56.10;;;;;;5030617;28;20172;-69
2022/08/10 08:23:19;;;;;;;3.78;1.98;;;23.60;56.10;;;;;;5031961;28;20195;-68
2022/08/10 08:25:45;;;;;;;5.10;2.10;;;23.60;56.00;;;;;;5031063;28;20218;-68
2022/08/10 08:28:10;;;;;;;4.18;1.90;;;23.60;56.00;;;;;;5030568;28;20243;-70
2022/08/10 08:30:36;;;;;;;2.03;1.83;;;23.60;56.00;;;;;;5030868;28;20638;-69
2022/08/10 08:33:02;;;;;;;3.40;2.15;;;23.60;56.00;;;;;;5017270;28;20213;-70
2022/08/10 08:35:28;;;;;;;2.88;1.92;;;23.60;55.80;;;;;;5035522;28;20179;-70
2022/08/10 08:37:53;;;;;;;3.15;2.33;;;23.70;56.00;;;;;;5017836;28;20187;-70
2022/08/10 08:40:23;;;;;;;3.05;1.92;;;23.70;55.90;;;;;;5033333;28;20175;-70
2022/08/10 08:43:10;;;;;;;2.65;1.80;;;23.70;55.80;;;;;;5034386;28;20184;-70
2022/08/10 08:45:59;;;;;;;3.30;2.20;;;23.70;55.90;;;;;;5035622;28;20216;-68
2022/08/10 08:48:48;;;;;;;4.65;2.53;;;23.70;55.90;;;;;;5035036;28;20190;-69
2022/08/10 08:51:35;;;;;;;1.75;1.65;;;23.70;55.90;;;;;;5034442;28;20176;-77
2022/08/10 08:54:25;;;;;;;3.58;2.47;;;23.70;55.90;;;;;;5033541;28;20321;-77
2022/08/10 08:57:18;;;;;;;2.40;1.92;;;23.80;55.90;;;;;;5035537;28;20187;-78
2022/08/10 09:00:05;;;;;;;3.58;2.20;;;23.80;55.80;;;;;;5035823;28;20195;-77
2022/08/10 09:03:00;;;;;;;3.90;2.25;;;23.80;55.90;;;;;;5034612;28;20180;-79
2022/08/10 09:06:04;;;;;;;3.38;2.10;;;23.80;55.80;;;;;;5017689;28;20208;-79
2022/08/10 09:08:48;;;;;;;4.75;2.40;;;23.80;55.80;;;;;;5017216;28;20266;-80
2022/08/10 09:11:25;;;;;;;4.18;2.30;;;23.80;55.80;;;;;;5035334;28;20258;-78
2022/08/10 09:14:20;;;;;;;3.40;2.78;;;23.80;55.80;;;;;;5035029;28;20187;-79
2022/08/10 09:17:03;;;;;;;2.95;2.50;;;23.90;55.80;;;;;;5033418;28;20210;-80
2022/08/10 09:19:42;;;;;;;2.22;1.88;;;23.90;55.70;;;;;;5017689;28;20172;-80
2022/08/10 09:22:31;;;;;;;3.45;2.03;;;23.90;55.70;;;;;;5032967;28;20234;-78
2022/08/10 09:25:33;;;;;;;5.40;2.95;;;23.90;55.70;;;;;;5033387;28;20218;-78
2022/08/10 09:28:03;;;;;;;2.20;1.95;;;23.90;55.70;;;;;;5024737;28;20191;-79
2022/08/10 09:30:37;;;;;;;3.63;2.03;;;24.00;55.70;;;;;;5034666;28;20618;-77
2022/08/10 09:33:18;;;;;;;2.33;2.15;;;24.00;55.70;;;;;;5034585;28;21035;-79
2022/08/10 09:36:04;;;;;;;3.88;2.47;;;24.00;55.50;;;;;;5015966;28;20622;-78
2022/08/10 09:38:53;;;;;;;2.53;2.08;;;24.00;55.40;;;;;;5033732;28;20225;-80
2022/08/10 09:41:36;;;;;;;4.10;2.25;;;24.00;55.40;;;;;;5033093;28;20180;-79
2022/08/10 09:44:27;;;;;;;3.22;2.30;;;24.00;55.40;;;;;;5032458;28;20634;-78
2022/08/10 09:47:17;;;;;;;2.92;2.20;;;24.00;55.40;;;;;;5033504;28;20223;-78
2022/08/10 09:50:20;;;;;;;3.60;2.15;;;24.00;55.30;;;;;;5033068;28;20172;-76
2022/08/10 09:53:07;;;;;;;3.47;2.05;;;24.10;55.40;;;;;;5016717;28;20171;-80
2022/08/10 09:55:45;;;;;;;2.63;1.80;;;24.10;55.30;;;;;;5034893;28;20179;-78
2022/08/10 09:58:30;;;;;;;3.30;1.80;;;24.10;55.30;;;;;;5034036;28;20191;-77
2022/08/10 10:01:09;;;;;;;3.28;2.00;;;24.10;55.20;;;;;;5017302;28;20176;-80
2022/08/10 10:03:57;;;;;;;2.78;1.65;;;24.10;55.20;;;;;;5033731;28;20171;-79
2022/08/10 10:06:37;;;;;;;4.03;1.98;;;24.20;55.20;;;;;;5034223;28;20319;-80
2022/08/10 10:09:23;;;;;;;2.60;2.38;;;24.20;55.20;;;;;;5032665;28;20570;-81
2022/08/10 10:12:09;;;;;;;2.38;2.05;;;24.20;55.10;;;;;;5032732;28;20279;-79
2022/08/10 10:15:19;;;;;;;1.95;1.77;;;24.20;55.10;;;;;;5034082;28;20480;-79
2022/08/10 10:17:58;;;;;;;2.05;1.60;;;24.20;55.00;;;;;;5032201;28;20214;-79
2022/08/10 10:20:51;;;;;;;2.70;2.20;;;24.30;55.00;;;;;;5033850;28;20178;-79
2022/08/10 10:23:32;;;;;;;3.72;1.98;;;24.30;55.00;;;;;;5033775;28;20172;-80
2022/08/10 10:26:36;;;;;;;2.30;2.10;;;24.30;55.60;;;;;;5033022;28;20238;-78
2022/08/10 10:29:26;;;;;;;2.60;2.00;;;24.30;54.90;;;;;;5032664;28;20253;-79
2022/08/10 10:32:24;;;;;;;2.33;2.13;;;24.30;54.80;;;;;;5033146;28;20183;-79
2022/08/10 10:34:58;;;;;;;2.55;1.83;;;24.30;54.80;;;;;;5032297;28;20214;-79
2022/08/10 10:37:24;;;;;;;2.55;1.83;;;24.40;54.70;;;;;;5016151;28;20180;-78
2022/08/10 10:39:52;;;;;;;1.67;1.58;;;24.40;54.70;;;;;;5015118;28;20666;-80
2022/08/10 10:42:29;;;;;;;2.95;1.80;;;24.40;54.70;;;;;;5033805;28;20238;-79
2022/08/10 10:45:20;;;;;;;3.50;1.80;;;24.40;54.70;;;;;;5032061;28;20234;-80
2022/08/10 10:47:51;;;;;;;1.80;1.70;;;24.40;54.70;;;;;;5015277;28;20183;-78
2022/08/10 10:50:37;;;;;;;2.03;1.67;;;24.40;54.70;;;;;;5033167;28;20659;-79
2022/08/10 10:53:18;;;;;;;2.67;1.88;;;24.40;54.70;;;;;;5030733;28;20552;-78
2022/08/10 10:56:19;;;;;;;2.10;1.98;;;24.40;54.70;;;;;;5032148;28;20288;-79
2022/08/10 10:59:14;;;;;;;2.53;1.60;;;24.40;54.70;;;;;;5015081;28;20274;-79
2022/08/10 11:01:51;;;;;;;2.47;1.70;;;24.50;54.60;;;;;;5015332;28;20187;-80
2022/08/10 11:04:29;;;;;;;1.75;1.65;;;24.50;54.60;;;;;;5015456;28;20183;-80
2022/08/10 11:07:15;;;;;;;2.10;1.88;;;24.50;54.60;;;;;;5030963;28;20198;-81
2022/08/10 11:09:56;;;;;;;2.80;2.10;;;24.50;54.50;;;;;;5031835;28;20259;-79
2022/08/10 11:12:56;;;;;;;1.90;1.80;;;24.50;54.50;;;;;;5015138;28;20612;-79
2022/08/10 11:15:32;;;;;;;1.80;1.45;;;24.50;54.50;;;;;;5008664;28;20183;-80
2022/08/10 11:17:58;;;;;;;1.65;1.55;;;24.50;54.50;;;;;;5015270;28;20250;-78
2022/08/10 11:20:31;;;;;;;2.00;1.80;;;24.50;54.40;;;;;;5031608;28;20172;-79
2022/08/10 11:23:18;;;;;;;2.15;1.67;;;24.50;54.40;;;;;;5031426;28;20168;-79
2022/08/10 11:26:06;;;;;;;1.65;1.55;;;24.50;54.40;;;;;;5031329;28;20220;-78
2022/08/10 11:28:45;;;;;;;3.50;1.60;;;24.50;54.40;;;;;;5022384;28;20215;-78
2022/08/10 11:31:21;;;;;;;1.60;1.45;;;24.50;54.30;;;;;;5032692;28;20720;-78
2022/08/10 11:33:54;;;;;;;1.90;1.80;;;24.60;54.30;;;;;;5031338;28;20168;-77
2022/08/10 11:36:30;;;;;;;1.52;1.42;;;24.60;54.30;;;;;;5031745;28;20258;-79
2022/08/10 11:39:09;;;;;;;2.40;1.60;;;24.60;54.30;;;;;;5032406;28;20186;-80
2022/08/10 11:41:44;;;;;;;2.65;1.52;;;24.60;54.30;;;;;;5031542;28;20179;-80
2022/08/10 11:44:35;;;;;;;1.90;1.65;;;24.60;54.30;;;;;;5032365;28;20179;-80
2022/08/10 11:47:06;;;;;;;1.40;1.30;;;24.60;54.20;;;;;;5032334;28;20199;-79
2022/08/10 11:49:52;;;;;;;1.65;1.55;;;24.60;54.20;;;;;;5031469;28;20590;-78
2022/08/10 11:52:52;;;;;;;1.63;1.52;;;24.60;54.20;;;;;;5032244;28;20258;-78
2022/08/10 11:55:19;;;;;;;1.83;1.73;;;24.60;54.20;;;;;;5030932;28;20175;-78
2022/08/10 11:57:45;;;;;;;2.10;1.77;;;24.60;54.10;;;;;;5031611;28;20182;-78
2022/08/10 12:00:11;;;;;;;1.65;1.55;;;24.60;54.10;;;;;;5031023;28;20263;-79
2022/08/10 12:02:48;;;;;;;1.50;1.40;;;24.70;54.10;;;;;;5031019;28;20179;-80
2022/08/10 12:05:21;;;;;;;2.17;1.70;;;24.70;54.00;;;;;;5030530;28;20207;-76
2022/08/10 12:07:52;;;;;;;1.50;1.40;;;24.70;54.00;;;;;;5014865;28;20530;-78
2022/08/10 12:10:19;;;;;;;1.40;1.30;;;24.70;54.00;;;;;;5031249;28;20303;-79
2022/08/10 12:13:08;;;;;;;1.90;1.40;;;24.70;54.00;;;;;;5031996;28;20221;-78
2022/08/10 12:16:03;;;;;;;1.75;1.65;;;24.80;54.00;;;;;;5032143;28;20195;-79
2022/08/10 12:18:45;;;;;;;1.92;1.30;;;24.70;54.60;;;;;;5030558;28;20176;-79
2022/08/10 12:21:41;;;;;;;1.60;1.48;;;24.70;53.90;;;;;;5031024;28;20188;-78
2022/08/10 12:24:37;;;;;;;1.77;1.63;;;24.80;53.90;;;;;;5013433;28;20199;-80
2022/08/10 12:27:24;;;;;;;1.55;1.45;;;24.80;53.80;;;;;;5014301;28;20180;-75
2022/08/10 12:29:59;;;;;;;1.40;1.30;;;24.80;53.70;;;;;;5029976;28;20223;-74
2022/08/10 12:32:45;;;;;;;1.85;1.40;;;24.80;53.50;;;;;;5013436;28;20313;-57
2022/08/10 12:35:22;;;;;;;2.20;1.58;;;24.80;53.50;;;;;;5030845;28;20668;-56
2022/08/10 12:37:54;;;;;;;3.70;1.52;;;24.70;53.20;;;;;;5031596;28;20184;-56
2022/08/10 12:40:26;;;;;;;3.60;1.65;;;24.60;53.00;;;;;;5031837;28;20615;-56
2022/08/10 12:42:56;;;;;;;1.88;1.42;;;24.60;53.00;;;;;;5031508;28;20213;-57
2022/08/10 12:45:31;;;;;;;1.40;1.30;;;24.60;52.80;;;;;;5013516;28;20247;-59
2022/08/10 12:48:16;;;;;;;3.25;1.48;;;24.50;52.80;;;;;;5032226;28;20175;-58
2022/08/10 12:50:43;;;;;;;2.05;1.42;;;24.50;52.80;;;;;;5015556;28;20203;-58
2022/08/10 12:53:35;;;;;;;1.80;1.55;;;24.40;52.90;;;;;;5029860;28;20267;-57
2022/08/10 12:56:02;;;;;;;1.58;1.48;;;24.40;53.60;;;;;;5030597;28;20188;-58
2022/08/10 12:58:27;;;;;;;2.67;1.60;;;24.40;53.60;;;;;;5031775;28;20578;-57
2022/08/10 13:00:53;;;;;;;5.90;1.90;;;24.40;53.40;;;;;;5029623;28;20171;-57
2022/08/10 13:03:21;;;;;;;2.65;1.70;;;24.50;53.70;;;;;;5030419;28;20532;-58
2022/08/10 13:05:46;;;;;;;2.45;1.50;;;24.50;53.60;;;;;;5030066;28;20207;-58
2022/08/10 13:11:02;;;;;;;1.70;1.60;;;24.50;53.50;;;;;;5016410;28;20230;-59
2022/08/10 13:13:31;;;;;;;2.78;1.25;;;24.50;53.40;;;;;;5029679;28;20246;-58
2022/08/10 13:15:56;;;;;;;1.65;1.50;;;24.50;53.40;;;;;;5030117;28;20226;-58
2022/08/10 13:18:25;;;;;;;1.60;1.42;;;24.50;53.40;;;;;;5033070;28;20199;-56
2022/08/10 13:20:51;;;;;;;2.00;1.42;;;24.50;53.30;;;;;;5033058;28;20227;-58
2022/08/10 13:23:20;;;;;;;2.78;1.50;;;24.50;53.20;;;;;;5035058;28;20216;-55